Aviation Digital Data Service (ADDS)

Output produced by METARs form (0815 UTC 28 July 2014)
found at http://aviationweather.gov/adds/metars/
 
KBPT 280520Z 2806/2906 21004KT P6SM SKC 
     FM281500 26008KT P6SM FEW040 
     FM282100 26008KT P6SM VCTS SCT040CB